sensor_id;sensor_type;location;lat;lon;timestamp;P1;durP1;ratioP1;P2;durP2;ratioP2
55469;SDS011;41334;47.872;16.384;2023-11-21T00:02:30;3.63;;;1.77;;
55469;SDS011;41334;47.872;16.384;2023-11-21T00:07:32;4.00;;;1.67;;
55469;SDS011;41334;47.872;16.384;2023-11-21T00:12:34;2.97;;;1.52;;
55469;SDS011;41334;47.872;16.384;2023-11-21T00:17:40;2.75;;;1.73;;
55469;SDS011;41334;47.872;16.384;2023-11-21T00:22:42;5.65;;;1.60;;
55469;SDS011;41334;47.872;16.384;2023-11-21T00:27:45;2.75;;;1.40;;
55469;SDS011;41334;47.872;16.384;2023-11-21T00:32:47;3.83;;;1.45;;
55469;SDS011;41334;47.872;16.384;2023-11-21T00:37:49;4.75;;;1.75;;
55469;SDS011;41334;47.872;16.384;2023-11-21T00:42:51;4.78;;;1.50;;
55469;SDS011;41334;47.872;16.384;2023-11-21T00:47:53;4.57;;;1.98;;
55469;SDS011;41334;47.872;16.384;2023-11-21T00:52:55;3.45;;;1.70;;
55469;SDS011;41334;47.872;16.384;2023-11-21T00:57:57;5.32;;;2.05;;
55469;SDS011;41334;47.872;16.384;2023-11-21T01:02:59;4.13;;;2.17;;
55469;SDS011;41334;47.872;16.384;2023-11-21T01:08:02;5.10;;;1.95;;
55469;SDS011;41334;47.872;16.384;2023-11-21T01:13:04;8.40;;;2.00;;
55469;SDS011;41334;47.872;16.384;2023-11-21T01:18:06;5.43;;;1.65;;
55469;SDS011;41334;47.872;16.384;2023-11-21T01:23:10;2.80;;;1.38;;
55469;SDS011;41334;47.872;16.384;2023-11-21T01:28:11;3.00;;;1.30;;
55469;SDS011;41334;47.872;16.384;2023-11-21T01:33:14;4.57;;;2.00;;
55469;SDS011;41334;47.872;16.384;2023-11-21T01:38:17;3.40;;;2.28;;
55469;SDS011;41334;47.872;16.384;2023-11-21T01:43:19;2.47;;;1.55;;
55469;SDS011;41334;47.872;16.384;2023-11-21T01:48:21;3.42;;;1.80;;
55469;SDS011;41334;47.872;16.384;2023-11-21T01:53:24;7.28;;;2.28;;
55469;SDS011;41334;47.872;16.384;2023-11-21T01:58:27;4.40;;;1.52;;
55469;SDS011;41334;47.872;16.384;2023-11-21T02:03:30;2.72;;;1.45;;
55469;SDS011;41334;47.872;16.384;2023-11-21T02:08:32;2.30;;;1.50;;
55469;SDS011;41334;47.872;16.384;2023-11-21T02:13:34;3.08;;;1.38;;
55469;SDS011;41334;47.872;16.384;2023-11-21T02:18:36;2.35;;;1.08;;
55469;SDS011;41334;47.872;16.384;2023-11-21T02:23:38;2.38;;;1.08;;
55469;SDS011;41334;47.872;16.384;2023-11-21T02:28:43;2.83;;;1.58;;
55469;SDS011;41334;47.872;16.384;2023-11-21T02:33:45;1.73;;;0.82;;
55469;SDS011;41334;47.872;16.384;2023-11-21T02:38:47;1.45;;;0.93;;
55469;SDS011;41334;47.872;16.384;2023-11-21T02:43:49;3.33;;;1.10;;
55469;SDS011;41334;47.872;16.384;2023-11-21T02:48:51;2.75;;;0.95;;
55469;SDS011;41334;47.872;16.384;2023-11-21T02:53:55;3.22;;;1.17;;
55469;SDS011;41334;47.872;16.384;2023-11-21T02:59:02;2.67;;;1.17;;
55469;SDS011;41334;47.872;16.384;2023-11-21T03:04:04;3.00;;;2.00;;
55469;SDS011;41334;47.872;16.384;2023-11-21T03:09:07;2.50;;;0.88;;
55469;SDS011;41334;47.872;16.384;2023-11-21T03:14:09;2.15;;;1.13;;
55469;SDS011;41334;47.872;16.384;2023-11-21T03:19:13;2.92;;;1.45;;
55469;SDS011;41334;47.872;16.384;2023-11-21T03:24:16;2.13;;;0.80;;
55469;SDS011;41334;47.872;16.384;2023-11-21T03:29:19;4.30;;;1.73;;
55469;SDS011;41334;47.872;16.384;2023-11-21T03:34:25;7.20;;;2.15;;
55469;SDS011;41334;47.872;16.384;2023-11-21T03:39:29;4.68;;;1.80;;
55469;SDS011;41334;47.872;16.384;2023-11-21T03:44:31;2.00;;;1.17;;
55469;SDS011;41334;47.872;16.384;2023-11-21T03:49:33;2.92;;;1.75;;
55469;SDS011;41334;47.872;16.384;2023-11-21T03:54:35;3.58;;;0.73;;
55469;SDS011;41334;47.872;16.384;2023-11-21T03:59:40;2.65;;;0.85;;
55469;SDS011;41334;47.872;16.384;2023-11-21T04:04:43;2.03;;;0.65;;
55469;SDS011;41334;47.872;16.384;2023-11-21T04:09:45;3.00;;;1.55;;
55469;SDS011;41334;47.872;16.384;2023-11-21T04:14:47;1.88;;;1.33;;
55469;SDS011;41334;47.872;16.384;2023-11-21T04:19:49;6.82;;;1.25;;
55469;SDS011;41334;47.872;16.384;2023-11-21T04:24:52;1.20;;;0.68;;
55469;SDS011;41334;47.872;16.384;2023-11-21T04:29:53;3.42;;;1.70;;
55469;SDS011;41334;47.872;16.384;2023-11-21T04:34:55;3.10;;;1.52;;
55469;SDS011;41334;47.872;16.384;2023-11-21T04:39:57;3.47;;;1.13;;
55469;SDS011;41334;47.872;16.384;2023-11-21T04:44:59;4.47;;;1.00;;
55469;SDS011;41334;47.872;16.384;2023-11-21T04:50:27;3.13;;;1.35;;
55469;SDS011;41334;47.872;16.384;2023-11-21T05:01:44;1.70;;;1.08;;
55469;SDS011;41334;47.872;16.384;2023-11-21T05:06:46;3.60;;;1.25;;
55469;SDS011;41334;47.872;16.384;2023-11-21T05:11:49;1.63;;;0.82;;
55469;SDS011;41334;47.872;16.384;2023-11-21T05:16:51;1.95;;;1.00;;
55469;SDS011;41334;47.872;16.384;2023-11-21T05:21:53;1.08;;;0.63;;
55469;SDS011;41334;47.872;16.384;2023-11-21T05:26:55;1.40;;;0.68;;
55469;SDS011;41334;47.872;16.384;2023-11-21T05:31:57;4.88;;;1.10;;
55469;SDS011;41334;47.872;16.384;2023-11-21T05:36:59;3.92;;;1.08;;
55469;SDS011;41334;47.872;16.384;2023-11-21T05:42:01;2.58;;;1.00;;
55469;SDS011;41334;47.872;16.384;2023-11-21T05:47:03;8.32;;;1.10;;
55469;SDS011;41334;47.872;16.384;2023-11-21T05:52:05;2.20;;;0.73;;
55469;SDS011;41334;47.872;16.384;2023-11-21T05:57:07;2.75;;;0.93;;
55469;SDS011;41334;47.872;16.384;2023-11-21T06:13:41;2.35;;;1.13;;
55469;SDS011;41334;47.872;16.384;2023-11-21T06:43:36;1.47;;;0.90;;
55469;SDS011;41334;47.872;16.384;2023-11-21T06:50:18;1.40;;;0.65;;
55469;SDS011;41334;47.872;16.384;2023-11-21T07:01:24;5.10;;;2.00;;
55469;SDS011;41334;47.872;16.384;2023-11-21T07:06:43;4.25;;;1.75;;
55469;SDS011;41334;47.872;16.384;2023-11-21T07:12:56;3.53;;;2.22;;
55469;SDS011;41334;47.872;16.384;2023-11-21T07:18:20;3.28;;;0.98;;
55469;SDS011;41334;47.872;16.384;2023-11-21T07:24:38;2.17;;;0.85;;
55469;SDS011;41334;47.872;16.384;2023-11-21T07:36:13;3.10;;;1.45;;
55469;SDS011;41334;47.872;16.384;2023-11-21T07:41:34;8.38;;;1.52;;
55469;SDS011;41334;47.872;16.384;2023-11-21T07:47:13;1.85;;;1.10;;
55469;SDS011;41334;47.872;16.384;2023-11-21T07:52:29;3.28;;;0.68;;
55469;SDS011;41334;47.872;16.384;2023-11-21T07:57:57;2.47;;;1.48;;
55469;SDS011;41334;47.872;16.384;2023-11-21T08:03:21;3.42;;;0.60;;
55469;SDS011;41334;47.872;16.384;2023-11-21T08:08:26;4.75;;;2.38;;
55469;SDS011;41334;47.872;16.384;2023-11-21T08:13:32;6.20;;;2.42;;
55469;SDS011;41334;47.872;16.384;2023-11-21T08:18:34;2.05;;;1.15;;
55469;SDS011;41334;47.872;16.384;2023-11-21T08:23:40;4.05;;;1.38;;
55469;SDS011;41334;47.872;16.384;2023-11-21T08:29:00;2.30;;;1.52;;
55469;SDS011;41334;47.872;16.384;2023-11-21T08:34:26;13.15;;;1.98;;
55469;SDS011;41334;47.872;16.384;2023-11-21T08:39:40;2.42;;;0.68;;
55469;SDS011;41334;47.872;16.384;2023-11-21T08:44:52;4.25;;;1.52;;
55469;SDS011;41334;47.872;16.384;2023-11-21T08:50:06;3.60;;;1.30;;
55469;SDS011;41334;47.872;16.384;2023-11-21T08:55:21;7.32;;;1.63;;
55469;SDS011;41334;47.872;16.384;2023-11-21T09:00:27;5.35;;;1.45;;
55469;SDS011;41334;47.872;16.384;2023-11-21T09:05:31;0.20;;;0.10;;
55469;SDS011;41334;47.872;16.384;2023-11-21T09:10:39;3.60;;;1.73;;
55469;SDS011;41334;47.872;16.384;2023-11-21T09:15:44;1.25;;;0.60;;
55469;SDS011;41334;47.872;16.384;2023-11-21T09:20:48;3.03;;;0.80;;
55469;SDS011;41334;47.872;16.384;2023-11-21T09:25:50;2.70;;;0.93;;
55469;SDS011;41334;47.872;16.384;2023-11-21T09:31:04;7.55;;;1.33;;
55469;SDS011;41334;47.872;16.384;2023-11-21T09:36:13;6.00;;;1.27;;
55469;SDS011;41334;47.872;16.384;2023-11-21T09:42:19;0.95;;;0.38;;
55469;SDS011;41334;47.872;16.384;2023-11-21T09:46:56;3.40;;;0.63;;
55469;SDS011;41334;47.872;16.384;2023-11-21T09:52:01;13.63;;;1.50;;
55469;SDS011;41334;47.872;16.384;2023-11-21T09:57:09;1.52;;;0.85;;
55469;SDS011;41334;47.872;16.384;2023-11-21T10:02:15;1.35;;;0.90;;
55469;SDS011;41334;47.872;16.384;2023-11-21T10:07:20;0.40;;;0.22;;
55469;SDS011;41334;47.872;16.384;2023-11-21T10:12:23;0.70;;;0.32;;
55469;SDS011;41334;47.872;16.384;2023-11-21T10:17:26;0.80;;;0.30;;
55469;SDS011;41334;47.872;16.384;2023-11-21T10:22:42;0.20;;;0.10;;
55469;SDS011;41334;47.872;16.384;2023-11-21T10:27:46;2.42;;;0.25;;
55469;SDS011;41334;47.872;16.384;2023-11-21T10:32:49;0.05;;;0.03;;
55469;SDS011;41334;47.872;16.384;2023-11-21T10:37:59;1.98;;;0.55;;
55469;SDS011;41334;47.872;16.384;2023-11-21T10:43:08;0.47;;;0.13;;
55469;SDS011;41334;47.872;16.384;2023-11-21T10:48:14;1.05;;;0.28;;
55469;SDS011;41334;47.872;16.384;2023-11-21T10:53:20;0.60;;;0.28;;
55469;SDS011;41334;47.872;16.384;2023-11-21T10:58:22;0.03;;;0.00;;
55469;SDS011;41334;47.872;16.384;2023-11-21T11:03:24;0.43;;;0.30;;
55469;SDS011;41334;47.872;16.384;2023-11-21T11:08:27;3.03;;;0.88;;
55469;SDS011;41334;47.872;16.384;2023-11-21T11:13:30;0.63;;;0.22;;
55469;SDS011;41334;47.872;16.384;2023-11-21T11:18:33;0.20;;;0.10;;
55469;SDS011;41334;47.872;16.384;2023-11-21T11:29:25;2.22;;;0.20;;
55469;SDS011;41334;47.872;16.384;2023-11-21T11:34:41;0.10;;;0.00;;
55469;SDS011;41334;47.872;16.384;2023-11-21T11:44:51;0.15;;;0.05;;
55469;SDS011;41334;47.872;16.384;2023-11-21T11:55:19;0.25;;;0.20;;
55469;SDS011;41334;47.872;16.384;2023-11-21T12:05:34;0.20;;;0.13;;
55469;SDS011;41334;47.872;16.384;2023-11-21T12:10:40;0.32;;;0.10;;
55469;SDS011;41334;47.872;16.384;2023-11-21T12:15:44;0.30;;;0.10;;
55469;SDS011;41334;47.872;16.384;2023-11-21T12:20:47;0.93;;;0.50;;
55469;SDS011;41334;47.872;16.384;2023-11-21T12:25:51;1.08;;;0.40;;
55469;SDS011;41334;47.872;16.384;2023-11-21T12:30:55;0.25;;;0.10;;
55469;SDS011;41334;47.872;16.384;2023-11-21T12:36:16;0.03;;;0.00;;
55469;SDS011;41334;47.872;16.384;2023-11-21T12:41:18;1.10;;;0.65;;
55469;SDS011;41334;47.872;16.384;2023-11-21T12:46:20;0.90;;;0.30;;
55469;SDS011;41334;47.872;16.384;2023-11-21T12:51:23;2.08;;;0.30;;
55469;SDS011;41334;47.872;16.384;2023-11-21T12:56:25;1.15;;;0.43;;
55469;SDS011;41334;47.872;16.384;2023-11-21T13:01:27;1.65;;;0.38;;
55469;SDS011;41334;47.872;16.384;2023-11-21T13:06:31;1.15;;;0.15;;
55469;SDS011;41334;47.872;16.384;2023-11-21T13:11:36;0.40;;;0.20;;
55469;SDS011;41334;47.872;16.384;2023-11-21T13:16:39;0.80;;;0.30;;
55469;SDS011;41334;47.872;16.384;2023-11-21T13:21:47;4.22;;;0.40;;
55469;SDS011;41334;47.872;16.384;2023-11-21T13:26:50;1.02;;;0.40;;
55469;SDS011;41334;47.872;16.384;2023-11-21T13:31:52;1.00;;;0.28;;
55469;SDS011;41334;47.872;16.384;2023-11-21T13:36:54;2.25;;;0.80;;
55469;SDS011;41334;47.872;16.384;2023-11-21T13:42:00;2.53;;;0.40;;
55469;SDS011;41334;47.872;16.384;2023-11-21T13:47:02;1.45;;;0.55;;
55469;SDS011;41334;47.872;16.384;2023-11-21T13:52:07;0.00;;;0.00;;
55469;SDS011;41334;47.872;16.384;2023-11-21T13:57:09;0.98;;;0.40;;
55469;SDS011;41334;47.872;16.384;2023-11-21T14:02:14;0.45;;;0.25;;
55469;SDS011;41334;47.872;16.384;2023-11-21T14:07:20;3.05;;;0.20;;
55469;SDS011;41334;47.872;16.384;2023-11-21T14:12:51;2.40;;;0.47;;
55469;SDS011;41334;47.872;16.384;2023-11-21T14:17:54;0.80;;;0.40;;
55469;SDS011;41334;47.872;16.384;2023-11-21T14:22:56;2.58;;;0.75;;
55469;SDS011;41334;47.872;16.384;2023-11-21T14:27:58;1.30;;;0.60;;
55469;SDS011;41334;47.872;16.384;2023-11-21T14:33:01;2.15;;;0.73;;
55469;SDS011;41334;47.872;16.384;2023-11-21T14:38:03;1.65;;;0.50;;
55469;SDS011;41334;47.872;16.384;2023-11-21T14:43:06;5.43;;;1.45;;
55469;SDS011;41334;47.872;16.384;2023-11-21T14:48:08;4.72;;;1.90;;
55469;SDS011;41334;47.872;16.384;2023-11-21T14:53:18;3.63;;;1.52;;
55469;SDS011;41334;47.872;16.384;2023-11-21T14:58:39;2.33;;;0.98;;
55469;SDS011;41334;47.872;16.384;2023-11-21T15:03:42;2.40;;;1.00;;
55469;SDS011;41334;47.872;16.384;2023-11-21T15:08:55;7.78;;;0.70;;
55469;SDS011;41334;47.872;16.384;2023-11-21T15:14:18;13.13;;;2.28;;
55469;SDS011;41334;47.872;16.384;2023-11-21T15:19:25;6.15;;;2.03;;
55469;SDS011;41334;47.872;16.384;2023-11-21T15:24:28;3.75;;;2.17;;
55469;SDS011;41334;47.872;16.384;2023-11-21T15:29:30;5.30;;;2.03;;
55469;SDS011;41334;47.872;16.384;2023-11-21T15:34:31;2.72;;;1.40;;
55469;SDS011;41334;47.872;16.384;2023-11-21T15:39:34;1.25;;;0.65;;
55469;SDS011;41334;47.872;16.384;2023-11-21T15:44:36;3.20;;;1.10;;
55469;SDS011;41334;47.872;16.384;2023-11-21T15:49:39;3.85;;;1.60;;
55469;SDS011;41334;47.872;16.384;2023-11-21T15:54:41;5.55;;;1.90;;
55469;SDS011;41334;47.872;16.384;2023-11-21T15:59:43;4.38;;;2.13;;
55469;SDS011;41334;47.872;16.384;2023-11-21T16:04:46;5.75;;;1.95;;
55469;SDS011;41334;47.872;16.384;2023-11-21T16:09:49;3.05;;;1.60;;
55469;SDS011;41334;47.872;16.384;2023-11-21T16:14:52;3.95;;;2.00;;
55469;SDS011;41334;47.872;16.384;2023-11-21T16:19:53;8.52;;;3.33;;
55469;SDS011;41334;47.872;16.384;2023-11-21T16:24:57;13.25;;;6.45;;
55469;SDS011;41334;47.872;16.384;2023-11-21T16:29:59;8.75;;;4.45;;
55469;SDS011;41334;47.872;16.384;2023-11-21T16:35:01;12.23;;;5.25;;
55469;SDS011;41334;47.872;16.384;2023-11-21T16:40:05;4.60;;;2.35;;
55469;SDS011;41334;47.872;16.384;2023-11-21T16:45:12;4.10;;;2.53;;
55469;SDS011;41334;47.872;16.384;2023-11-21T16:50:14;7.00;;;2.47;;
55469;SDS011;41334;47.872;16.384;2023-11-21T16:55:16;5.18;;;2.22;;
55469;SDS011;41334;47.872;16.384;2023-11-21T17:00:18;5.93;;;2.70;;
55469;SDS011;41334;47.872;16.384;2023-11-21T17:05:24;9.90;;;4.18;;
55469;SDS011;41334;47.872;16.384;2023-11-21T17:10:26;9.63;;;4.20;;
55469;SDS011;41334;47.872;16.384;2023-11-21T17:15:28;4.53;;;1.95;;
55469;SDS011;41334;47.872;16.384;2023-11-21T17:20:30;6.40;;;2.15;;
55469;SDS011;41334;47.872;16.384;2023-11-21T17:25:32;6.28;;;2.25;;
55469;SDS011;41334;47.872;16.384;2023-11-21T17:30:34;2.35;;;1.40;;
55469;SDS011;41334;47.872;16.384;2023-11-21T17:35:39;1.90;;;1.10;;
55469;SDS011;41334;47.872;16.384;2023-11-21T17:40:41;2.40;;;0.90;;
55469;SDS011;41334;47.872;16.384;2023-11-21T17:45:43;4.57;;;1.25;;
55469;SDS011;41334;47.872;16.384;2023-11-21T17:50:45;6.60;;;2.25;;
55469;SDS011;41334;47.872;16.384;2023-11-21T17:55:47;3.15;;;1.90;;
55469;SDS011;41334;47.872;16.384;2023-11-21T18:00:49;3.92;;;1.60;;
55469;SDS011;41334;47.872;16.384;2023-11-21T18:05:51;2.92;;;1.73;;
55469;SDS011;41334;47.872;16.384;2023-11-21T18:10:54;4.50;;;1.40;;
55469;SDS011;41334;47.872;16.384;2023-11-21T18:15:59;5.85;;;1.70;;
55469;SDS011;41334;47.872;16.384;2023-11-21T18:21:02;5.70;;;1.73;;
55469;SDS011;41334;47.872;16.384;2023-11-21T18:26:04;2.72;;;1.30;;
55469;SDS011;41334;47.872;16.384;2023-11-21T18:31:06;3.83;;;1.92;;
55469;SDS011;41334;47.872;16.384;2023-11-21T18:36:09;3.03;;;1.60;;
55469;SDS011;41334;47.872;16.384;2023-11-21T18:41:19;2.88;;;1.67;;
55469;SDS011;41334;47.872;16.384;2023-11-21T18:46:22;2.63;;;1.52;;
55469;SDS011;41334;47.872;16.384;2023-11-21T18:51:24;3.33;;;1.20;;
55469;SDS011;41334;47.872;16.384;2023-11-21T18:56:26;4.10;;;1.80;;
55469;SDS011;41334;47.872;16.384;2023-11-21T19:01:30;5.22;;;1.55;;
55469;SDS011;41334;47.872;16.384;2023-11-21T19:06:32;1.52;;;0.90;;
55469;SDS011;41334;47.872;16.384;2023-11-21T19:11:34;3.53;;;1.13;;
55469;SDS011;41334;47.872;16.384;2023-11-21T19:16:36;3.58;;;1.67;;
55469;SDS011;41334;47.872;16.384;2023-11-21T19:21:39;3.70;;;2.17;;
55469;SDS011;41334;47.872;16.384;2023-11-21T19:26:44;2.15;;;1.10;;
55469;SDS011;41334;47.872;16.384;2023-11-21T19:31:50;3.10;;;2.00;;
55469;SDS011;41334;47.872;16.384;2023-11-21T19:36:52;5.13;;;1.63;;
55469;SDS011;41334;47.872;16.384;2023-11-21T19:41:54;1.90;;;1.08;;
55469;SDS011;41334;47.872;16.384;2023-11-21T19:47:02;7.28;;;2.30;;
55469;SDS011;41334;47.872;16.384;2023-11-21T19:52:05;2.50;;;1.30;;
55469;SDS011;41334;47.872;16.384;2023-11-21T19:57:09;3.08;;;1.48;;
55469;SDS011;41334;47.872;16.384;2023-11-21T20:02:15;1.75;;;0.98;;
55469;SDS011;41334;47.872;16.384;2023-11-21T20:07:17;1.75;;;0.90;;
55469;SDS011;41334;47.872;16.384;2023-11-21T20:18:02;1.25;;;0.98;;
55469;SDS011;41334;47.872;16.384;2023-11-21T20:23:04;2.42;;;1.50;;
55469;SDS011;41334;47.872;16.384;2023-11-21T20:33:37;3.25;;;1.65;;
55469;SDS011;41334;47.872;16.384;2023-11-21T20:38:39;5.28;;;1.88;;
55469;SDS011;41334;47.872;16.384;2023-11-21T20:43:41;3.90;;;2.08;;
55469;SDS011;41334;47.872;16.384;2023-11-21T20:48:42;6.95;;;2.28;;
55469;SDS011;41334;47.872;16.384;2023-11-21T20:53:46;7.90;;;1.73;;
55469;SDS011;41334;47.872;16.384;2023-11-21T20:58:48;3.40;;;1.63;;
55469;SDS011;41334;47.872;16.384;2023-11-21T21:03:50;6.75;;;1.90;;
55469;SDS011;41334;47.872;16.384;2023-11-21T21:08:52;13.43;;;2.78;;
55469;SDS011;41334;47.872;16.384;2023-11-21T21:13:54;1.77;;;0.98;;
55469;SDS011;41334;47.872;16.384;2023-11-21T21:18:56;5.15;;;1.30;;
55469;SDS011;41334;47.872;16.384;2023-11-21T21:24:00;3.58;;;1.38;;
55469;SDS011;41334;47.872;16.384;2023-11-21T21:29:02;1.13;;;0.90;;
55469;SDS011;41334;47.872;16.384;2023-11-21T21:34:04;4.65;;;1.50;;
55469;SDS011;41334;47.872;16.384;2023-11-21T21:39:07;2.35;;;1.33;;
55469;SDS011;41334;47.872;16.384;2023-11-21T21:44:08;3.13;;;1.65;;
55469;SDS011;41334;47.872;16.384;2023-11-21T21:49:10;3.60;;;1.50;;
55469;SDS011;41334;47.872;16.384;2023-11-21T21:54:14;1.70;;;1.25;;
55469;SDS011;41334;47.872;16.384;2023-11-21T21:59:35;4.18;;;1.15;;
55469;SDS011;41334;47.872;16.384;2023-11-21T22:04:42;0.15;;;0.00;;
55469;SDS011;41334;47.872;16.384;2023-11-21T23:11:25;5.30;;;1.75;;
55469;SDS011;41334;47.872;16.384;2023-11-21T23:16:32;2.47;;;1.55;;
55469;SDS011;41334;47.872;16.384;2023-11-21T23:21:35;1.00;;;0.38;;
55469;SDS011;41334;47.872;16.384;2023-11-21T23:26:39;0.10;;;0.10;;
55469;SDS011;41334;47.872;16.384;2023-11-21T23:31:45;0.60;;;0.43;;
55469;SDS011;41334;47.872;16.384;2023-11-21T23:36:47;0.47;;;0.38;;
55469;SDS011;41334;47.872;16.384;2023-11-21T23:41:49;1.48;;;0.90;;
55469;SDS011;41334;47.872;16.384;2023-11-21T23:46:50;2.28;;;1.33;;
55469;SDS011;41334;47.872;16.384;2023-11-21T23:51:52;1.55;;;1.00;;
55469;SDS011;41334;47.872;16.384;2023-11-21T23:56:54;1.40;;;0.80;;
